sensor_id;sensor_type;location;lat;lon;timestamp;P1;P2;P0
34176;PMS7003;20450;49.074;9.158;2023-06-10T00:00:28;22.00;21.50;16.75
34176;PMS7003;20450;49.074;9.158;2023-06-10T00:02:55;15.25;15.25;12.00
34176;PMS7003;20450;49.074;9.158;2023-06-10T00:05:22;17.75;17.75;11.00
34176;PMS7003;20450;49.074;9.158;2023-06-10T00:07:48;14.25;12.75;10.25
34176;PMS7003;20450;49.074;9.158;2023-06-10T00:10:16;16.50;15.50;13.50
34176;PMS7003;20450;49.074;9.158;2023-06-10T00:12:44;17.75;16.75;12.50
34176;PMS7003;20450;49.074;9.158;2023-06-10T00:15:11;15.50;14.25;10.00
34176;PMS7003;20450;49.074;9.158;2023-06-10T00:17:38;19.25;17.00;12.50
34176;PMS7003;20450;49.074;9.158;2023-06-10T00:20:07;16.50;16.50;11.25
34176;PMS7003;20450;49.074;9.158;2023-06-10T00:22:35;18.00;18.00;14.00
34176;PMS7003;20450;49.074;9.158;2023-06-10T00:25:03;18.25;18.25;13.25
34176;PMS7003;20450;49.074;9.158;2023-06-10T00:27:31;14.50;13.25;10.00
34176;PMS7003;20450;49.074;9.158;2023-06-10T00:30:00;16.00;15.50;13.25
34176;PMS7003;20450;49.074;9.158;2023-06-10T00:32:30;14.00;14.00;11.00
34176;PMS7003;20450;49.074;9.158;2023-06-10T00:34:57;13.00;13.00;9.00
34176;PMS7003;20450;49.074;9.158;2023-06-10T00:37:24;17.50;13.25;10.00
34176;PMS7003;20450;49.074;9.158;2023-06-10T00:39:52;17.50;16.00;13.00
34176;PMS7003;20450;49.074;9.158;2023-06-10T00:42:20;17.50;14.75;11.75
34176;PMS7003;20450;49.074;9.158;2023-06-10T00:44:47;15.50;15.50;11.25
34176;PMS7003;20450;49.074;9.158;2023-06-10T00:47:15;15.00;13.25;10.50
34176;PMS7003;20450;49.074;9.158;2023-06-10T00:49:43;15.50;13.25;9.75
34176;PMS7003;20450;49.074;9.158;2023-06-10T00:52:12;15.00;15.00;12.00
34176;PMS7003;20450;49.074;9.158;2023-06-10T00:54:42;16.75;16.00;13.00
34176;PMS7003;20450;49.074;9.158;2023-06-10T00:57:11;14.25;13.00;10.50
34176;PMS7003;20450;49.074;9.158;2023-06-10T00:59:39;13.50;13.50;9.75
34176;PMS7003;20450;49.074;9.158;2023-06-10T01:02:07;16.00;14.00;11.00
34176;PMS7003;20450;49.074;9.158;2023-06-10T01:04:35;16.75;15.75;12.00
34176;PMS7003;20450;49.074;9.158;2023-06-10T01:07:04;13.75;13.75;10.75
34176;PMS7003;20450;49.074;9.158;2023-06-10T01:09:54;15.50;14.50;10.00
34176;PMS7003;20450;49.074;9.158;2023-06-10T01:12:31;18.25;13.50;9.75
34176;PMS7003;20450;49.074;9.158;2023-06-10T01:15:08;13.50;11.00;9.25
34176;PMS7003;20450;49.074;9.158;2023-06-10T01:17:37;15.00;13.00;10.25
34176;PMS7003;20450;49.074;9.158;2023-06-10T01:20:23;18.50;14.00;12.25
34176;PMS7003;20450;49.074;9.158;2023-06-10T01:22:52;13.00;13.00;11.25
34176;PMS7003;20450;49.074;9.158;2023-06-10T01:25:19;20.50;16.00;13.50
34176;PMS7003;20450;49.074;9.158;2023-06-10T01:27:47;17.50;14.00;10.00
34176;PMS7003;20450;49.074;9.158;2023-06-10T01:30:18;15.75;15.50;13.25
34176;PMS7003;20450;49.074;9.158;2023-06-10T01:32:53;16.75;14.00;12.00
34176;PMS7003;20450;49.074;9.158;2023-06-10T01:35:21;13.00;12.00;9.50
34176;PMS7003;20450;49.074;9.158;2023-06-10T01:37:53;19.25;15.50;11.00
34176;PMS7003;20450;49.074;9.158;2023-06-10T01:40:25;13.25;12.75;9.25
34176;PMS7003;20450;49.074;9.158;2023-06-10T01:42:53;16.00;15.25;10.75
34176;PMS7003;20450;49.074;9.158;2023-06-10T01:45:20;14.25;14.25;11.75
34176;PMS7003;20450;49.074;9.158;2023-06-10T01:47:47;16.50;11.50;7.50
34176;PMS7003;20450;49.074;9.158;2023-06-10T01:50:14;16.50;13.75;10.50
34176;PMS7003;20450;49.074;9.158;2023-06-10T01:52:41;17.00;13.50;11.25
34176;PMS7003;20450;49.074;9.158;2023-06-10T01:55:10;14.50;13.75;12.00
34176;PMS7003;20450;49.074;9.158;2023-06-10T01:57:39;17.75;16.25;12.00
34176;PMS7003;20450;49.074;9.158;2023-06-10T02:00:06;19.75;18.75;12.25
34176;PMS7003;20450;49.074;9.158;2023-06-10T02:06:35;15.25;15.25;12.25
34176;PMS7003;20450;49.074;9.158;2023-06-10T02:09:12;18.00;16.50;12.00
34176;PMS7003;20450;49.074;9.158;2023-06-10T02:11:41;16.50;13.75;10.50
34176;PMS7003;20450;49.074;9.158;2023-06-10T02:14:08;18.50;17.25;11.75
34176;PMS7003;20450;49.074;9.158;2023-06-10T02:16:35;15.25;15.25;11.25
34176;PMS7003;20450;49.074;9.158;2023-06-10T02:19:04;18.25;13.00;10.75
34176;PMS7003;20450;49.074;9.158;2023-06-10T02:21:31;15.25;12.00;9.00
34176;PMS7003;20450;49.074;9.158;2023-06-10T02:23:58;14.75;10.75;9.25
34176;PMS7003;20450;49.074;9.158;2023-06-10T02:26:25;17.50;14.25;11.25
34176;PMS7003;20450;49.074;9.158;2023-06-10T02:28:54;12.00;11.00;9.00
34176;PMS7003;20450;49.074;9.158;2023-06-10T02:31:22;12.25;11.75;8.50
34176;PMS7003;20450;49.074;9.158;2023-06-10T02:33:49;19.75;12.25;9.00
34176;PMS7003;20450;49.074;9.158;2023-06-10T02:36:16;14.50;11.25;9.00
34176;PMS7003;20450;49.074;9.158;2023-06-10T02:38:43;13.50;13.25;10.50
34176;PMS7003;20450;49.074;9.158;2023-06-10T02:41:11;12.75;12.25;11.25
34176;PMS7003;20450;49.074;9.158;2023-06-10T02:43:38;10.50;9.50;8.00
34176;PMS7003;20450;49.074;9.158;2023-06-10T02:46:07;13.50;13.50;9.00
34176;PMS7003;20450;49.074;9.158;2023-06-10T02:48:40;15.50;12.50;9.00
34176;PMS7003;20450;49.074;9.158;2023-06-10T02:51:09;15.25;13.25;10.75
34176;PMS7003;20450;49.074;9.158;2023-06-10T02:53:40;15.75;15.75;12.25
34176;PMS7003;20450;49.074;9.158;2023-06-10T02:56:10;15.75;14.00;10.75
34176;PMS7003;20450;49.074;9.158;2023-06-10T02:58:37;13.33;13.33;11.00
34176;PMS7003;20450;49.074;9.158;2023-06-10T03:01:05;14.00;13.00;10.00
34176;PMS7003;20450;49.074;9.158;2023-06-10T03:03:42;13.33;9.00;6.67
34176;PMS7003;20450;49.074;9.158;2023-06-10T03:06:12;15.50;12.75;10.25
34176;PMS7003;20450;49.074;9.158;2023-06-10T03:09:01;12.75;11.50;9.75
34176;PMS7003;20450;49.074;9.158;2023-06-10T03:11:50;18.50;18.50;13.75
34176;PMS7003;20450;49.074;9.158;2023-06-10T03:14:32;17.75;13.00;9.25
34176;PMS7003;20450;49.074;9.158;2023-06-10T03:17:11;17.75;16.75;11.50
34176;PMS7003;20450;49.074;9.158;2023-06-10T03:19:41;16.00;13.00;10.00
34176;PMS7003;20450;49.074;9.158;2023-06-10T03:22:10;18.25;17.25;13.25
34176;PMS7003;20450;49.074;9.158;2023-06-10T03:24:52;13.25;13.25;10.50
34176;PMS7003;20450;49.074;9.158;2023-06-10T03:27:23;11.00;11.00;9.00
34176;PMS7003;20450;49.074;9.158;2023-06-10T03:29:54;14.75;13.75;10.00
34176;PMS7003;20450;49.074;9.158;2023-06-10T03:32:22;15.00;15.00;12.00
34176;PMS7003;20450;49.074;9.158;2023-06-10T03:34:49;14.00;13.00;9.25
34176;PMS7003;20450;49.074;9.158;2023-06-10T03:37:18;16.00;14.00;11.75
34176;PMS7003;20450;49.074;9.158;2023-06-10T03:39:47;14.25;12.00;9.50
34176;PMS7003;20450;49.074;9.158;2023-06-10T03:42:14;18.00;13.50;11.00
34176;PMS7003;20450;49.074;9.158;2023-06-10T03:44:41;14.25;14.25;10.00
34176;PMS7003;20450;49.074;9.158;2023-06-10T03:47:08;16.75;14.50;9.75
34176;PMS7003;20450;49.074;9.158;2023-06-10T03:49:38;11.50;9.25;7.25
34176;PMS7003;20450;49.074;9.158;2023-06-10T03:52:05;14.75;13.50;9.75
34176;PMS7003;20450;49.074;9.158;2023-06-10T03:54:33;16.00;14.00;10.00
34176;PMS7003;20450;49.074;9.158;2023-06-10T03:57:00;14.25;12.00;11.00
34176;PMS7003;20450;49.074;9.158;2023-06-10T03:59:27;12.00;11.00;8.25
34176;PMS7003;20450;49.074;9.158;2023-06-10T04:01:54;15.25;15.25;11.75
34176;PMS7003;20450;49.074;9.158;2023-06-10T04:04:22;12.25;10.50;8.25
34176;PMS7003;20450;49.074;9.158;2023-06-10T04:06:51;14.25;14.25;11.25
34176;PMS7003;20450;49.074;9.158;2023-06-10T04:09:20;13.50;13.00;10.00
34176;PMS7003;20450;49.074;9.158;2023-06-10T04:11:47;11.25;11.00;9.00
34176;PMS7003;20450;49.074;9.158;2023-06-10T04:14:14;13.25;13.00;10.50
34176;PMS7003;20450;49.074;9.158;2023-06-10T04:16:42;14.80;14.20;9.40
34176;PMS7003;20450;49.074;9.158;2023-06-10T04:19:10;15.60;15.00;11.80
34176;PMS7003;20450;49.074;9.158;2023-06-10T04:21:38;15.40;14.40;10.20
34176;PMS7003;20450;49.074;9.158;2023-06-10T04:24:06;11.00;10.40;8.00
34176;PMS7003;20450;49.074;9.158;2023-06-10T04:26:34;16.80;14.00;10.20
34176;PMS7003;20450;49.074;9.158;2023-06-10T04:29:02;12.60;12.00;9.60
34176;PMS7003;20450;49.074;9.158;2023-06-10T04:31:30;11.00;11.00;8.60
34176;PMS7003;20450;49.074;9.158;2023-06-10T04:33:57;15.20;12.60;10.20
34176;PMS7003;20450;49.074;9.158;2023-06-10T04:36:27;14.40;11.00;9.00
34176;PMS7003;20450;49.074;9.158;2023-06-10T04:38:54;10.20;8.20;6.40
34176;PMS7003;20450;49.074;9.158;2023-06-10T04:41:23;11.20;10.80;8.80
34176;PMS7003;20450;49.074;9.158;2023-06-10T04:43:50;8.20;8.20;6.80
34176;PMS7003;20450;49.074;9.158;2023-06-10T04:46:19;9.00;6.40;5.00
34176;PMS7003;20450;49.074;9.158;2023-06-10T04:48:47;11.80;11.80;9.00
34176;PMS7003;20450;49.074;9.158;2023-06-10T04:51:14;12.60;12.60;10.20
34176;PMS7003;20450;49.074;9.158;2023-06-10T04:53:42;12.40;12.40;10.40
34176;PMS7003;20450;49.074;9.158;2023-06-10T04:56:10;12.40;10.60;10.00
34176;PMS7003;20450;49.074;9.158;2023-06-10T04:58:40;12.00;12.00;10.20
34176;PMS7003;20450;49.074;9.158;2023-06-10T05:01:08;12.00;11.60;10.60
34176;PMS7003;20450;49.074;9.158;2023-06-10T05:03:36;6.80;6.80;5.40
34176;PMS7003;20450;49.074;9.158;2023-06-10T05:06:04;13.40;13.00;8.60
34176;PMS7003;20450;49.074;9.158;2023-06-10T05:08:33;12.00;12.00;10.60
34176;PMS7003;20450;49.074;9.158;2023-06-10T05:11:00;15.80;15.80;13.00
34176;PMS7003;20450;49.074;9.158;2023-06-10T05:13:28;12.40;12.00;11.00
34176;PMS7003;20450;49.074;9.158;2023-06-10T05:15:57;10.40;10.40;8.20
34176;PMS7003;20450;49.074;9.158;2023-06-10T05:18:24;12.00;12.00;9.40
34176;PMS7003;20450;49.074;9.158;2023-06-10T05:20:51;12.40;11.40;8.40
34176;PMS7003;20450;49.074;9.158;2023-06-10T05:23:19;12.60;12.60;9.20
34176;PMS7003;20450;49.074;9.158;2023-06-10T05:25:46;13.80;11.00;8.20
34176;PMS7003;20450;49.074;9.158;2023-06-10T05:28:13;15.00;15.00;13.00
34176;PMS7003;20450;49.074;9.158;2023-06-10T05:30:41;9.40;9.40;8.20
34176;PMS7003;20450;49.074;9.158;2023-06-10T05:33:09;10.00;10.00;8.20
34176;PMS7003;20450;49.074;9.158;2023-06-10T05:35:36;13.40;13.40;11.20
34176;PMS7003;20450;49.074;9.158;2023-06-10T05:38:06;8.40;8.40;6.60
34176;PMS7003;20450;49.074;9.158;2023-06-10T05:40:33;10.60;10.60;8.60
34176;PMS7003;20450;49.074;9.158;2023-06-10T05:43:01;10.40;9.20;8.60
34176;PMS7003;20450;49.074;9.158;2023-06-10T05:45:28;9.60;9.60;8.00
34176;PMS7003;20450;49.074;9.158;2023-06-10T05:47:56;10.40;9.00;8.00
34176;PMS7003;20450;49.074;9.158;2023-06-10T05:50:25;9.00;9.00;8.00
34176;PMS7003;20450;49.074;9.158;2023-06-10T05:52:52;8.00;7.00;6.00
34176;PMS7003;20450;49.074;9.158;2023-06-10T05:55:20;2.80;2.60;1.20
34176;PMS7003;20450;49.074;9.158;2023-06-10T05:57:48;8.40;8.40;7.80
34176;PMS7003;20450;49.074;9.158;2023-06-10T06:00:25;5.20;5.20;4.80
34176;PMS7003;20450;49.074;9.158;2023-06-10T06:02:53;8.20;8.20;6.80
34176;PMS7003;20450;49.074;9.158;2023-06-10T06:05:21;8.20;8.20;6.80
34176;PMS7003;20450;49.074;9.158;2023-06-10T06:07:51;9.80;8.00;6.20
34176;PMS7003;20450;49.074;9.158;2023-06-10T06:10:27;7.20;7.20;7.20
34176;PMS7003;20450;49.074;9.158;2023-06-10T06:12:56;9.00;8.00;7.20
34176;PMS7003;20450;49.074;9.158;2023-06-10T06:15:23;6.60;6.60;6.00
34176;PMS7003;20450;49.074;9.158;2023-06-10T06:17:50;7.00;7.00;6.60
34176;PMS7003;20450;49.074;9.158;2023-06-10T06:20:20;9.00;9.00;7.00
34176;PMS7003;20450;49.074;9.158;2023-06-10T06:22:48;8.20;8.20;5.80
34176;PMS7003;20450;49.074;9.158;2023-06-10T06:25:17;7.60;7.60;6.00
34176;PMS7003;20450;49.074;9.158;2023-06-10T06:27:44;9.60;9.00;6.80
34176;PMS7003;20450;49.074;9.158;2023-06-10T06:30:11;8.20;8.20;6.40
34176;PMS7003;20450;49.074;9.158;2023-06-10T06:32:40;5.60;5.60;5.00
34176;PMS7003;20450;49.074;9.158;2023-06-10T06:35:08;7.20;7.20;6.40
34176;PMS7003;20450;49.074;9.158;2023-06-10T06:37:35;7.20;6.60;5.40
34176;PMS7003;20450;49.074;9.158;2023-06-10T06:40:15;7.20;6.60;6.00
34176;PMS7003;20450;49.074;9.158;2023-06-10T06:42:44;7.40;7.40;6.40
34176;PMS7003;20450;49.074;9.158;2023-06-10T06:45:21;7.00;6.80;6.00
34176;PMS7003;20450;49.074;9.158;2023-06-10T06:47:48;7.80;7.00;6.20
34176;PMS7003;20450;49.074;9.158;2023-06-10T06:50:16;9.00;8.80;7.00
34176;PMS7003;20450;49.074;9.158;2023-06-10T06:52:44;5.60;5.60;4.60
34176;PMS7003;20450;49.074;9.158;2023-06-10T06:55:11;7.20;7.20;5.60
34176;PMS7003;20450;49.074;9.158;2023-06-10T06:57:42;7.80;7.80;6.80
34176;PMS7003;20450;49.074;9.158;2023-06-10T07:00:09;8.80;7.20;6.60
34176;PMS7003;20450;49.074;9.158;2023-06-10T07:02:38;6.40;6.40;6.00
34176;PMS7003;20450;49.074;9.158;2023-06-10T07:05:06;8.00;7.20;6.60
34176;PMS7003;20450;49.074;9.158;2023-06-10T07:07:40;8.00;8.00;6.60
34176;PMS7003;20450;49.074;9.158;2023-06-10T07:10:12;8.00;8.00;7.40
34176;PMS7003;20450;49.074;9.158;2023-06-10T07:12:41;6.40;6.40;5.80
34176;PMS7003;20450;49.074;9.158;2023-06-10T07:15:09;6.80;6.80;5.00
34176;PMS7003;20450;49.074;9.158;2023-06-10T07:17:37;7.00;7.00;5.20
34176;PMS7003;20450;49.074;9.158;2023-06-10T07:20:05;7.40;7.40;6.20
34176;PMS7003;20450;49.074;9.158;2023-06-10T07:22:33;6.80;6.80;6.00
34176;PMS7003;20450;49.074;9.158;2023-06-10T07:25:00;7.40;7.40;6.80
34176;PMS7003;20450;49.074;9.158;2023-06-10T07:27:27;6.80;6.80;5.80
34176;PMS7003;20450;49.074;9.158;2023-06-10T07:29:56;6.00;6.00;5.00
34176;PMS7003;20450;49.074;9.158;2023-06-10T07:32:24;8.60;8.60;7.20
34176;PMS7003;20450;49.074;9.158;2023-06-10T07:35:02;8.00;7.00;6.40
34176;PMS7003;20450;49.074;9.158;2023-06-10T07:37:33;9.40;9.40;8.00
34176;PMS7003;20450;49.074;9.158;2023-06-10T07:40:00;6.20;6.20;5.60
34176;PMS7003;20450;49.074;9.158;2023-06-10T07:42:27;15.00;15.00;11.80
34176;PMS7003;20450;49.074;9.158;2023-06-10T07:44:55;8.80;7.60;6.60
34176;PMS7003;20450;49.074;9.158;2023-06-10T07:47:22;7.00;7.00;6.00
34176;PMS7003;20450;49.074;9.158;2023-06-10T07:49:49;6.40;6.40;5.60
34176;PMS7003;20450;49.074;9.158;2023-06-10T07:52:16;6.80;5.00;4.40
34176;PMS7003;20450;49.074;9.158;2023-06-10T07:54:43;6.00;6.00;5.00
34176;PMS7003;20450;49.074;9.158;2023-06-10T07:57:10;5.00;5.00;3.40
34176;PMS7003;20450;49.074;9.158;2023-06-10T07:59:37;5.80;5.80;5.40
34176;PMS7003;20450;49.074;9.158;2023-06-10T08:02:06;7.40;6.60;5.60
34176;PMS7003;20450;49.074;9.158;2023-06-10T08:04:33;8.60;8.60;7.40
34176;PMS7003;20450;49.074;9.158;2023-06-10T08:07:00;8.00;7.20;6.20
34176;PMS7003;20450;49.074;9.158;2023-06-10T08:09:28;7.60;7.60;6.60
34176;PMS7003;20450;49.074;9.158;2023-06-10T08:11:55;9.80;9.80;8.00
34176;PMS7003;20450;49.074;9.158;2023-06-10T08:14:22;6.80;6.60;6.00
34176;PMS7003;20450;49.074;9.158;2023-06-10T08:16:49;9.40;9.40;8.20
34176;PMS7003;20450;49.074;9.158;2023-06-10T08:19:17;8.00;7.60;6.20
34176;PMS7003;20450;49.074;9.158;2023-06-10T08:21:44;6.60;6.60;5.60
34176;PMS7003;20450;49.074;9.158;2023-06-10T08:24:11;6.20;6.20;5.40
34176;PMS7003;20450;49.074;9.158;2023-06-10T08:26:38;8.00;7.00;6.00
34176;PMS7003;20450;49.074;9.158;2023-06-10T08:29:06;4.60;4.60;4.00
34176;PMS7003;20450;49.074;9.158;2023-06-10T08:31:33;7.80;7.40;6.20
34176;PMS7003;20450;49.074;9.158;2023-06-10T08:34:00;6.40;6.40;6.00
34176;PMS7003;20450;49.074;9.158;2023-06-10T08:36:28;8.00;6.40;5.40
34176;PMS7003;20450;49.074;9.158;2023-06-10T08:38:55;7.00;7.00;6.40
34176;PMS7003;20450;49.074;9.158;2023-06-10T08:41:22;7.80;7.20;6.80
34176;PMS7003;20450;49.074;9.158;2023-06-10T08:43:58;7.80;7.80;7.00
34176;PMS7003;20450;49.074;9.158;2023-06-10T08:46:34;6.80;6.80;6.20
34176;PMS7003;20450;49.074;9.158;2023-06-10T08:49:03;8.60;8.60;7.60
34176;PMS7003;20450;49.074;9.158;2023-06-10T08:51:34;7.80;7.80;6.20
34176;PMS7003;20450;49.074;9.158;2023-06-10T08:54:04;7.40;7.40;6.40
34176;PMS7003;20450;49.074;9.158;2023-06-10T08:56:39;8.20;8.20;7.40
34176;PMS7003;20450;49.074;9.158;2023-06-10T08:59:09;9.20;9.20;7.40
34176;PMS7003;20450;49.074;9.158;2023-06-10T09:01:38;8.20;8.20;7.40
34176;PMS7003;20450;49.074;9.158;2023-06-10T09:04:05;10.60;10.60;8.80
34176;PMS7003;20450;49.074;9.158;2023-06-10T09:06:34;9.80;9.80;7.80
34176;PMS7003;20450;49.074;9.158;2023-06-10T09:09:02;10.60;9.60;7.40
34176;PMS7003;20450;49.074;9.158;2023-06-10T09:11:31;10.60;9.40;8.00
34176;PMS7003;20450;49.074;9.158;2023-06-10T09:13:59;6.00;6.00;5.40
34176;PMS7003;20450;49.074;9.158;2023-06-10T09:16:26;8.60;8.40;7.00
34176;PMS7003;20450;49.074;9.158;2023-06-10T09:18:53;4.80;4.60;3.80
34176;PMS7003;20450;49.074;9.158;2023-06-10T09:21:22;10.20;10.20;7.80
34176;PMS7003;20450;49.074;9.158;2023-06-10T09:23:50;12.40;10.20;8.00
34176;PMS7003;20450;49.074;9.158;2023-06-10T09:26:18;9.00;9.00;7.00
34176;PMS7003;20450;49.074;9.158;2023-06-10T09:28:47;8.40;8.20;7.20
34176;PMS7003;20450;49.074;9.158;2023-06-10T09:31:16;7.00;7.00;5.60
34176;PMS7003;20450;49.074;9.158;2023-06-10T09:33:46;10.00;8.40;7.20
34176;PMS7003;20450;49.074;9.158;2023-06-10T09:36:21;6.00;6.00;6.00
34176;PMS7003;20450;49.074;9.158;2023-06-10T09:38:50;11.20;11.20;9.20
34176;PMS7003;20450;49.074;9.158;2023-06-10T09:41:17;8.00;8.00;6.80
34176;PMS7003;20450;49.074;9.158;2023-06-10T09:43:47;9.20;8.80;7.00
34176;PMS7003;20450;49.074;9.158;2023-06-10T09:46:20;11.40;10.00;7.60
34176;PMS7003;20450;49.074;9.158;2023-06-10T09:48:47;9.60;9.60;8.00
34176;PMS7003;20450;49.074;9.158;2023-06-10T09:51:15;11.60;11.00;9.00
34176;PMS7003;20450;49.074;9.158;2023-06-10T09:53:42;8.20;8.20;7.00
34176;PMS7003;20450;49.074;9.158;2023-06-10T09:56:11;8.00;8.00;7.00
34176;PMS7003;20450;49.074;9.158;2023-06-10T09:58:39;7.40;7.40;6.40
34176;PMS7003;20450;49.074;9.158;2023-06-10T10:01:10;10.00;10.00;7.60
34176;PMS7003;20450;49.074;9.158;2023-06-10T10:03:43;9.40;9.40;8.00
34176;PMS7003;20450;49.074;9.158;2023-06-10T10:06:11;9.60;9.40;8.20
34176;PMS7003;20450;49.074;9.158;2023-06-10T10:08:39;10.00;9.80;8.00
34176;PMS7003;20450;49.074;9.158;2023-06-10T10:11:06;8.60;7.40;6.40
34176;PMS7003;20450;49.074;9.158;2023-06-10T10:13:35;8.20;8.20;6.80
34176;PMS7003;20450;49.074;9.158;2023-06-10T10:16:06;9.20;9.20;8.40
34176;PMS7003;20450;49.074;9.158;2023-06-10T10:18:38;9.00;9.00;7.80
34176;PMS7003;20450;49.074;9.158;2023-06-10T10:21:12;11.00;11.00;8.80
34176;PMS7003;20450;49.074;9.158;2023-06-10T10:23:44;9.60;9.60;8.00
34176;PMS7003;20450;49.074;9.158;2023-06-10T10:26:23;9.40;8.80;7.20
34176;PMS7003;20450;49.074;9.158;2023-06-10T10:28:56;10.20;10.20;8.00
34176;PMS7003;20450;49.074;9.158;2023-06-10T10:31:36;11.20;9.20;8.20
34176;PMS7003;20450;49.074;9.158;2023-06-10T10:34:06;5.60;5.60;4.60
34176;PMS7003;20450;49.074;9.158;2023-06-10T10:36:40;6.80;6.80;6.80
34176;PMS7003;20450;49.074;9.158;2023-06-10T10:39:08;10.80;9.80;7.60
34176;PMS7003;20450;49.074;9.158;2023-06-10T10:41:36;7.60;7.60;6.80
34176;PMS7003;20450;49.074;9.158;2023-06-10T10:44:06;7.60;7.60;7.00
34176;PMS7003;20450;49.074;9.158;2023-06-10T10:46:41;10.20;9.80;8.00
34176;PMS7003;20450;49.074;9.158;2023-06-10T10:49:10;9.80;8.20;7.00
34176;PMS7003;20450;49.074;9.158;2023-06-10T10:51:54;9.00;9.00;7.20
34176;PMS7003;20450;49.074;9.158;2023-06-10T10:54:29;7.80;7.80;6.80
34176;PMS7003;20450;49.074;9.158;2023-06-10T10:57:12;10.40;10.40;8.00
34176;PMS7003;20450;49.074;9.158;2023-06-10T10:59:44;10.00;9.20;8.00
34176;PMS7003;20450;49.074;9.158;2023-06-10T11:02:17;8.00;8.00;7.00
34176;PMS7003;20450;49.074;9.158;2023-06-10T11:04:46;14.20;12.80;10.00
34176;PMS7003;20450;49.074;9.158;2023-06-10T11:07:14;7.20;7.20;6.00
34176;PMS7003;20450;49.074;9.158;2023-06-10T11:09:57;9.60;9.60;8.00
34176;PMS7003;20450;49.074;9.158;2023-06-10T11:12:25;8.60;8.60;7.40
34176;PMS7003;20450;49.074;9.158;2023-06-10T11:14:56;8.40;8.40;6.40
34176;PMS7003;20450;49.074;9.158;2023-06-10T11:17:25;9.00;9.00;7.20
34176;PMS7003;20450;49.074;9.158;2023-06-10T11:19:53;7.40;7.40;6.60
34176;PMS7003;20450;49.074;9.158;2023-06-10T11:22:20;8.00;8.00;6.80
34176;PMS7003;20450;49.074;9.158;2023-06-10T11:24:47;8.00;8.00;7.00
34176;PMS7003;20450;49.074;9.158;2023-06-10T11:27:16;9.80;9.80;8.40
34176;PMS7003;20450;49.074;9.158;2023-06-10T11:30:00;8.60;8.60;7.40
34176;PMS7003;20450;49.074;9.158;2023-06-10T11:32:46;9.00;9.00;8.00
34176;PMS7003;20450;49.074;9.158;2023-06-10T11:35:18;9.40;9.40;8.20
34176;PMS7003;20450;49.074;9.158;2023-06-10T11:37:46;5.60;5.60;5.00
34176;PMS7003;20450;49.074;9.158;2023-06-10T11:40:14;11.20;11.20;7.80
34176;PMS7003;20450;49.074;9.158;2023-06-10T11:42:42;7.80;7.00;6.40
34176;PMS7003;20450;49.074;9.158;2023-06-10T11:45:14;7.60;7.60;5.80
34176;PMS7003;20450;49.074;9.158;2023-06-10T11:47:54;7.80;7.80;6.40
34176;PMS7003;20450;49.074;9.158;2023-06-10T11:50:29;9.00;7.40;6.00
34176;PMS7003;20450;49.074;9.158;2023-06-10T11:52:59;7.20;7.20;6.80
34176;PMS7003;20450;49.074;9.158;2023-06-10T11:55:38;7.80;7.80;6.80
34176;PMS7003;20450;49.074;9.158;2023-06-10T11:58:11;7.20;6.40;5.60
34176;PMS7003;20450;49.074;9.158;2023-06-10T12:00:45;6.60;6.60;5.60
34176;PMS7003;20450;49.074;9.158;2023-06-10T12:03:13;6.20;6.00;5.20
34176;PMS7003;20450;49.074;9.158;2023-06-10T12:05:40;6.60;6.60;6.00
34176;PMS7003;20450;49.074;9.158;2023-06-10T12:08:23;7.20;7.20;6.40
34176;PMS7003;20450;49.074;9.158;2023-06-10T12:10:53;8.00;8.00;6.80
34176;PMS7003;20450;49.074;9.158;2023-06-10T12:13:21;7.20;7.20;5.80
34176;PMS7003;20450;49.074;9.158;2023-06-10T12:15:50;6.00;6.00;5.60
34176;PMS7003;20450;49.074;9.158;2023-06-10T12:18:17;7.00;7.00;6.00
34176;PMS7003;20450;49.074;9.158;2023-06-10T12:20:45;6.40;6.40;5.40
34176;PMS7003;20450;49.074;9.158;2023-06-10T12:23:13;8.40;7.60;7.00
34176;PMS7003;20450;49.074;9.158;2023-06-10T12:25:49;6.00;6.00;5.20
34176;PMS7003;20450;49.074;9.158;2023-06-10T12:28:17;7.00;7.00;6.00
34176;PMS7003;20450;49.074;9.158;2023-06-10T12:30:49;8.80;8.80;7.40
34176;PMS7003;20450;49.074;9.158;2023-06-10T12:33:17;6.80;6.80;5.80
34176;PMS7003;20450;49.074;9.158;2023-06-10T12:35:48;9.00;9.00;8.00
34176;PMS7003;20450;49.074;9.158;2023-06-10T12:38:20;9.20;9.20;7.20
34176;PMS7003;20450;49.074;9.158;2023-06-10T12:40:50;9.20;9.00;7.20
34176;PMS7003;20450;49.074;9.158;2023-06-10T12:43:21;5.60;4.60;3.40
34176;PMS7003;20450;49.074;9.158;2023-06-10T12:45:51;4.60;4.60;3.20
34176;PMS7003;20450;49.074;9.158;2023-06-10T12:48:19;8.80;8.80;7.20
34176;PMS7003;20450;49.074;9.158;2023-06-10T12:50:50;6.40;6.40;5.60
34176;PMS7003;20450;49.074;9.158;2023-06-10T12:53:19;7.40;7.40;6.20
34176;PMS7003;20450;49.074;9.158;2023-06-10T12:55:47;9.60;7.00;6.40
34176;PMS7003;20450;49.074;9.158;2023-06-10T12:58:16;7.20;7.20;6.00
34176;PMS7003;20450;49.074;9.158;2023-06-10T13:00:43;6.40;6.40;5.40
34176;PMS7003;20450;49.074;9.158;2023-06-10T13:03:11;6.80;6.80;5.40
34176;PMS7003;20450;49.074;9.158;2023-06-10T13:05:39;7.80;7.00;5.00
34176;PMS7003;20450;49.074;9.158;2023-06-10T13:08:07;6.20;6.00;4.80
34176;PMS7003;20450;49.074;9.158;2023-06-10T13:10:35;7.40;7.00;5.80
34176;PMS7003;20450;49.074;9.158;2023-06-10T13:13:03;4.00;3.80;3.80
34176;PMS7003;20450;49.074;9.158;2023-06-10T13:15:30;9.40;8.80;7.40
34176;PMS7003;20450;49.074;9.158;2023-06-10T13:17:58;8.80;8.20;6.80
34176;PMS7003;20450;49.074;9.158;2023-06-10T13:20:26;6.20;6.20;6.00
34176;PMS7003;20450;49.074;9.158;2023-06-10T13:22:53;6.00;5.80;4.80
34176;PMS7003;20450;49.074;9.158;2023-06-10T13:25:21;8.20;8.20;7.00
34176;PMS7003;20450;49.074;9.158;2023-06-10T13:27:48;7.80;6.00;5.20
34176;PMS7003;20450;49.074;9.158;2023-06-10T13:30:15;7.20;7.20;6.20
34176;PMS7003;20450;49.074;9.158;2023-06-10T13:32:42;7.40;7.40;6.20
34176;PMS7003;20450;49.074;9.158;2023-06-10T13:35:09;7.00;7.00;5.80
34176;PMS7003;20450;49.074;9.158;2023-06-10T13:37:38;6.20;6.20;5.20
34176;PMS7003;20450;49.074;9.158;2023-06-10T13:40:05;4.80;4.80;4.80
34176;PMS7003;20450;49.074;9.158;2023-06-10T13:42:34;8.00;8.00;6.20
34176;PMS7003;20450;49.074;9.158;2023-06-10T13:45:01;7.60;7.00;5.60
34176;PMS7003;20450;49.074;9.158;2023-06-10T13:47:29;8.80;8.00;6.60
34176;PMS7003;20450;49.074;9.158;2023-06-10T13:49:56;7.00;6.00;5.00
34176;PMS7003;20450;49.074;9.158;2023-06-10T13:52:23;8.00;8.00;6.20
34176;PMS7003;20450;49.074;9.158;2023-06-10T13:54:51;8.80;8.20;7.00
34176;PMS7003;20450;49.074;9.158;2023-06-10T13:57:18;6.80;6.80;6.00
34176;PMS7003;20450;49.074;9.158;2023-06-10T13:59:45;6.40;6.00;5.20
34176;PMS7003;20450;49.074;9.158;2023-06-10T14:02:12;7.60;7.60;6.00
34176;PMS7003;20450;49.074;9.158;2023-06-10T14:04:39;5.40;5.40;4.60
34176;PMS7003;20450;49.074;9.158;2023-06-10T14:07:06;5.40;5.40;5.00
34176;PMS7003;20450;49.074;9.158;2023-06-10T14:09:33;6.20;6.20;5.80
34176;PMS7003;20450;49.074;9.158;2023-06-10T14:12:01;8.00;7.20;6.00
34176;PMS7003;20450;49.074;9.158;2023-06-10T14:14:28;6.20;5.40;4.80
34176;PMS7003;20450;49.074;9.158;2023-06-10T14:16:55;4.60;4.60;4.60
34176;PMS7003;20450;49.074;9.158;2023-06-10T14:19:22;6.20;6.20;5.20
34176;PMS7003;20450;49.074;9.158;2023-06-10T14:21:49;6.60;6.60;5.60
34176;PMS7003;20450;49.074;9.158;2023-06-10T14:24:16;7.20;6.60;5.60